»·PEaware :: N265K KSNA-KBUR

N265K :: KSNA-KBUR

FLIGHT INFORMATION

Flight Status: Arrived
Operator: Privately registered:
United States
More flights under this callsign
Pilot: Tytus A. (10113)
Aircraft: CESSNA 210 CENTURION
(C210)
More flights by this aircraft type
Origin: KSNA John Wayne-Orange Co
United States
Destination: KBUR Bob Hope-Burbank
United States
More flights between these airports :: More routes between these airports
Route: SLI V23 POPPR SMO125 SMO SMO311 SILEX
File this flight plan on PilotEdge
Remarks: I'll accept a hold if you can work it in
Altitude:
(Current/Filed)
4,000ft
Speed:
(Current/Filed)
160kts
Departed: 07-Apr-20 08:26 PM
Arrived: 07-Apr-20 08:58 PM
Distance/Time
Traveled:
40nm/0:32
Distance/Time
To Go:
Arrived

Flight Plot

Page will automatically refresh every two minutes.


Map Options




Map Legend


Flown Route
Filed Route
Departure Airport
Arrival Airport
Navaid (VOR, NDB)
Fix

Horizontal Profiles

Position Reports

Time Latitude Longitude Heading Altitude Ground
Speed
07-Apr-20 20:06 33.677120 -117.863421 116 59ft 0kts
07-Apr-20 20:07 33.677120 -117.863420 116 59ft 0kts
07-Apr-20 20:08 33.677119 -117.863419 116 59ft 0kts
07-Apr-20 20:09 33.677119 -117.863418 116 59ft 0kts
07-Apr-20 20:10 33.677119 -117.863417 116 59ft 0kts
07-Apr-20 20:11 33.677118 -117.863417 116 59ft 0kts
07-Apr-20 20:13 33.677118 -117.863416 117 59ft 0kts
07-Apr-20 20:14 33.677117 -117.863415 117 59ft 0kts
07-Apr-20 20:15 33.677117 -117.863414 117 59ft 0kts
07-Apr-20 20:16 33.677117 -117.863413 117 59ft 0kts
07-Apr-20 20:17 33.677116 -117.863413 117 59ft 0kts
07-Apr-20 20:18 33.677116 -117.863412 117 59ft 0kts
07-Apr-20 20:19 33.677116 -117.863411 117 59ft 0kts
07-Apr-20 20:20 33.677115 -117.863410 117 59ft 0kts
07-Apr-20 20:21 33.677115 -117.863409 118 59ft 0kts
07-Apr-20 20:22 33.677309 -117.863517 298 59ft 3kts
07-Apr-20 20:23 33.679290 -117.863218 14 59ft 4kts
07-Apr-20 20:24 33.679599 -117.863556 295 59ft 0kts
07-Apr-20 20:25 33.679599 -117.863558 295 59ft 0kts
07-Apr-20 20:26 33.670980 -117.869942 208 196ft 97kts
07-Apr-20 20:27 33.651516 -117.899565 244 1407ft 132kts
07-Apr-20 20:28 33.631719 -117.941998 239 2110ft 144kts
07-Apr-20 20:29 33.612029 -117.982655 239 2792ft 139kts
07-Apr-20 20:30 33.602588 -118.023730 309 3530ft 135kts
07-Apr-20 20:31 33.632858 -118.053817 323 3994ft 155kts
07-Apr-20 20:32 33.667851 -118.085094 323 3983ft 155kts
07-Apr-20 20:32 33.696732 -118.110984 323 3983ft 155kts
07-Apr-20 20:34 33.737103 -118.147395 322 3982ft 155kts
07-Apr-20 20:35 33.771667 -118.178784 322 3969ft 156kts
07-Apr-20 20:35 33.802953 -118.201007 330 3953ft 157kts
07-Apr-20 20:36 33.836949 -118.233331 300 3964ft 155kts
07-Apr-20 20:38 33.857145 -118.288376 291 3984ft 153kts
07-Apr-20 20:38 33.879518 -118.321613 311 3994ft 154kts
07-Apr-20 20:39 33.911321 -118.355250 305 4014ft 154kts
07-Apr-20 20:41 33.949226 -118.395104 321 3991ft 155kts
07-Apr-20 20:41 33.976796 -118.422993 319 3984ft 155kts
07-Apr-20 20:42 34.010056 -118.456539 319 3973ft 155kts
07-Apr-20 20:43 34.043161 -118.489616 309 3995ft 155kts
07-Apr-20 20:44 34.070977 -118.529899 308 3979ft 155kts
07-Apr-20 20:45 34.098647 -118.570695 308 3987ft 157kts
07-Apr-20 20:46 34.126241 -118.611556 308 3981ft 156kts
07-Apr-20 20:47 34.153639 -118.652089 308 3980ft 156kts
07-Apr-20 20:48 34.186962 -118.658895 54 4060ft 148kts
07-Apr-20 20:49 34.202946 -118.613152 85 3995ft 150kts
07-Apr-20 20:50 34.203290 -118.564663 94 3001ft 126kts
07-Apr-20 20:51 34.201251 -118.530674 90 3058ft 108kts
07-Apr-20 20:52 34.200381 -118.490617 96 2997ft 127kts
07-Apr-20 20:53 34.198019 -118.452526 90 2451ft 105kts
07-Apr-20 20:54 34.196846 -118.419269 74 1773ft 86kts
07-Apr-20 20:55 34.198219 -118.390498 89 1333ft 89kts
07-Apr-20 20:56 34.197870 -118.365561 87 782ft 52kts
07-Apr-20 20:57 34.197675 -118.360318 178 781ft 0kts
07-Apr-20 20:58 34.197117 -118.360308 178 781ft 0kts

Navigation Log

Ident Type
Flight plan parsing failed, navigation log unavailable